Lawrence, Kansas
Current Conditions -  °F | °C
As of 12:52 PM on Friday 31 Oct 2014 (Local Time) from KLWC Reporting Station
Clear Clear  
Wind Chill: 37°   Ceiling: Unl
Heat Index: 44°   Visibility: 10mi
Dew Point: 19°   Wind: 14mph
Humidity: 37%   Direction: 350°N
Pressure: 30.51"   Gusts: 17mph
Location:  38.9718°N, 95.235°W
Report Text: KLWC 311752Z AUTO 35012G15KT 10SM CLR 07/M07 A3051 RMK AO2 RAB1654E03 SLP334 P0000 60000 T00671072 10067 20000 58000
Loading
Personal Weather Stations






























Interactive Weather Map
Tropical Storm Tracking
New forecast layout! Learn more

10-Day Weather Forecast

Advertisements
Track Severe Weather on mobile